createdAt,value
2019-06-07T00:01:17.055Z,7.65
2019-06-07T00:03:51.910Z,8.10
2019-06-07T00:06:26.092Z,8.18
2019-06-07T00:09:00.068Z,7.92
2019-06-07T00:11:34.121Z,7.58
2019-06-07T00:14:08.627Z,7.40
2019-06-07T00:16:43.006Z,7.58
2019-06-07T00:19:18.845Z,8.10
2019-06-07T00:22:15.535Z,8.30
2019-06-07T00:24:27.496Z,7.97
2019-06-07T00:27:01.680Z,7.50
2019-06-07T00:29:35.379Z,8.08
2019-06-07T00:32:09.333Z,8.13
2019-06-07T00:34:43.078Z,7.75
2019-06-07T00:37:19.802Z,8.20
2019-06-07T00:40:12.756Z,7.87
2019-06-07T00:42:27.476Z,7.83
2019-06-07T00:45:01.661Z,7.70
2019-06-07T00:47:35.320Z,7.20
2019-06-07T00:50:11.142Z,7.35
2019-06-07T00:55:27.049Z,6.87
2019-06-07T00:57:56.080Z,8.08
2019-06-07T01:00:29.781Z,6.75
2019-06-07T01:03:03.671Z,6.62
2019-06-07T01:05:37.360Z,7.62
2019-06-07T01:08:11.121Z,7.42
2019-06-07T01:10:53.561Z,7.22
2019-06-07T01:13:22.748Z,7.42
2019-06-07T01:15:55.623Z,6.33
2019-06-07T01:18:42.898Z,6.92
2019-06-07T01:21:05.003Z,6.80
2019-06-07T01:26:16.799Z,6.75
2019-06-07T01:28:49.583Z,6.60
2019-06-07T01:31:27.595Z,6.40
2019-06-07T01:33:58.775Z,6.97
2019-06-07T01:36:32.474Z,7.40
2019-06-07T01:39:07.473Z,6.97
2019-06-07T01:41:41.527Z,8.05
2019-06-07T01:44:17.741Z,8.00
2019-06-07T01:46:50.701Z,7.83
2019-06-07T01:49:27.422Z,8.15
2019-06-07T01:52:00.095Z,8.08
2019-06-07T01:54:57.364Z,7.42
2019-06-07T01:57:30.505Z,8.40
2019-06-07T01:59:45.875Z,7.83
2019-06-07T02:02:20.188Z,8.00
2019-06-07T02:04:53.885Z,8.28
2019-06-07T02:07:32.611Z,8.70
2019-06-07T02:10:03.124Z,7.75
2019-06-07T02:12:43.147Z,8.38
2019-06-07T02:15:13.726Z,8.33
2019-06-07T02:17:47.806Z,8.43
2019-06-07T02:20:25.795Z,9.25
2019-06-07T02:22:57.937Z,9.05
2019-06-07T02:25:43.646Z,9.48
2019-06-07T02:28:32.002Z,8.48
2019-06-07T02:30:51.059Z,8.13
2019-06-07T02:33:18.434Z,8.78
2019-06-07T02:35:52.157Z,8.70
2019-06-07T02:38:29.419Z,9.33
2019-06-07T02:41:01.987Z,8.23
2019-06-07T02:43:37.225Z,8.08
2019-06-07T02:46:34.140Z,9.00
2019-06-07T02:48:59.258Z,10.30
2019-06-07T02:51:40.737Z,8.95
2019-06-07T02:54:08.364Z,8.80
2019-06-07T02:56:56.086Z,9.08
2019-06-07T02:59:17.768Z,8.60
2019-06-07T03:01:51.510Z,9.85
2019-06-07T03:04:27.219Z,9.98
2019-06-07T03:07:00.985Z,9.18
2019-06-07T03:09:36.978Z,9.73
2019-06-07T03:12:10.489Z,9.00
2019-06-07T03:14:44.232Z,9.45
2019-06-07T03:17:40.896Z,10.30
2019-06-07T03:20:16.321Z,9.28
2019-06-07T03:22:49.932Z,10.55
2019-06-07T03:25:24.157Z,10.58
2019-06-07T03:27:57.863Z,10.18
2019-06-07T03:30:39.898Z,10.30
2019-06-07T03:33:07.068Z,11.28
2019-06-07T03:35:40.854Z,9.78
2019-06-07T03:38:14.459Z,10.68
2019-06-07T03:40:49.572Z,10.35
2019-06-07T03:43:23.403Z,11.45
2019-06-07T03:45:57.124Z,11.30
2019-06-07T03:48:32.906Z,11.28
2019-06-07T03:51:23.628Z,12.03
2019-06-07T03:53:41.935Z,12.60
2019-06-07T03:56:16.683Z,11.45
2019-06-07T03:58:50.755Z,14.30
2019-06-07T04:01:24.563Z,11.90
2019-06-07T04:03:58.263Z,13.05
2019-06-07T04:06:34.467Z,12.45
2019-06-07T04:09:08.757Z,12.75
2019-06-07T04:11:42.745Z,14.07
2019-06-07T04:14:16.511Z,12.40
2019-06-07T04:16:50.314Z,12.58
2019-06-07T04:19:24.055Z,13.20
2019-06-07T04:21:57.805Z,13.78
2019-06-07T04:24:33.827Z,13.68
2019-06-07T04:27:07.021Z,16.07
2019-06-07T04:30:03.153Z,13.65
2019-06-07T04:32:16.059Z,15.00
2019-06-07T04:34:49.749Z,15.35
2019-06-07T04:37:23.581Z,13.60
2019-06-07T04:39:57.417Z,16.95
2019-06-07T04:42:35.093Z,15.30
2019-06-07T04:45:29.210Z,16.67
2019-06-07T04:47:43.431Z,14.65
2019-06-07T04:50:17.060Z,18.02
2019-06-07T04:52:50.702Z,15.63
2019-06-07T04:55:26.203Z,17.75
2019-06-07T04:57:59.880Z,14.45
2019-06-07T05:00:51.879Z,14.63
2019-06-07T05:03:09.971Z,16.95
2019-06-07T05:05:43.978Z,14.80
2019-06-07T05:08:28.047Z,14.50
2019-06-07T05:10:53.161Z,14.65
2019-06-07T05:13:27.324Z,15.18
2019-06-07T05:16:01.953Z,13.93
2019-06-07T05:18:39.645Z,16.07
2019-06-07T05:21:11.961Z,14.58
2019-06-07T05:24:09.209Z,16.27
2019-06-07T05:26:21.060Z,18.57
2019-06-07T05:28:54.764Z,16.75
2019-06-07T05:31:28.527Z,14.75
2019-06-07T05:34:02.625Z,19.42
2019-06-07T05:36:39.347Z,13.38
2019-06-07T05:39:12.005Z,16.05
2019-06-07T05:41:45.769Z,19.25
2019-06-07T05:44:19.484Z,16.85
2019-06-07T05:46:53.248Z,18.17
2019-06-07T05:49:27.266Z,15.50
2019-06-07T05:52:01.271Z,18.07
2019-06-07T05:54:36.082Z,16.65
2019-06-07T05:57:10.250Z,18.85
2019-06-07T05:59:46.832Z,18.12
2019-06-07T06:02:24.546Z,19.80
2019-06-07T06:04:54.887Z,21.42
2019-06-07T06:07:28.904Z,19.52
2019-06-07T06:10:03.033Z,20.92
2019-06-07T06:12:40.610Z,18.57
2019-06-07T06:15:12.240Z,19.82
2019-06-07T06:17:49.254Z,18.32
2019-06-07T06:20:23.593Z,18.77
2019-06-07T06:22:57.238Z,18.70
2019-06-07T06:25:33.808Z,20.17
2019-06-07T06:28:12.260Z,18.48
2019-06-07T06:30:46.030Z,23.55
2019-06-07T06:33:33.070Z,19.87
2019-06-07T06:35:55.939Z,21.48
2019-06-07T06:38:29.689Z,21.27
2019-06-07T06:41:15.082Z,23.07
2019-06-07T06:43:41.479Z,23.55
2019-06-07T06:46:14.260Z,19.90
2019-06-07T06:48:54.466Z,22.80
2019-06-07T06:51:23.501Z,22.02
2019-06-07T06:53:57.235Z,23.65
2019-06-07T06:56:31.119Z,21.73
2019-06-07T07:01:42.520Z,24.27
2019-06-07T07:04:16.251Z,26.40
2019-06-07T07:06:50.745Z,23.07
2019-06-07T07:09:25.852Z,20.32
2019-06-07T07:12:11.139Z,26.85
2019-06-07T07:14:36.386Z,24.20
2019-06-07T07:17:12.001Z,25.17
2019-06-07T07:19:49.775Z,28.42
2019-06-07T07:22:23.707Z,29.18
2019-06-07T07:24:57.468Z,30.10
2019-06-07T07:27:31.829Z,28.30
2019-06-07T07:30:35.530Z,29.82
2019-06-07T07:32:45.075Z,25.45
2019-06-07T07:35:18.269Z,26.60
2019-06-07T07:37:55.865Z,28.35
2019-06-07T07:40:57.074Z,22.85
2019-06-07T07:43:03.274Z,25.35
2019-06-07T07:45:37.094Z,21.00
2019-06-07T07:48:17.870Z,26.07
2019-06-07T07:50:49.889Z,24.50
2019-06-07T07:53:22.325Z,21.57
2019-06-07T07:56:00.059Z,20.32
2019-06-07T07:58:31.509Z,20.52
2019-06-07T08:01:10.897Z,23.45
2019-06-07T08:03:40.626Z,21.82
2019-06-07T08:06:14.404Z,22.77
2019-06-07T08:08:48.762Z,22.80
2019-06-07T08:11:23.001Z,43.30
2019-06-07T08:13:58.520Z,28.57
2019-06-07T08:16:32.477Z,34.75
2019-06-07T08:19:06.211Z,27.58
2019-06-07T08:21:39.989Z,29.60
2019-06-07T08:24:13.799Z,28.67
2019-06-07T08:27:12.514Z,26.50
2019-06-07T08:29:23.223Z,28.10
2019-06-07T08:31:58.693Z,26.00
2019-06-07T08:34:33.044Z,23.95
2019-06-07T08:37:06.761Z,26.73
2019-06-07T08:39:40.413Z,24.98
2019-06-07T08:42:21.153Z,24.40
2019-06-07T08:44:51.883Z,22.75
2019-06-07T08:47:25.356Z,24.80
2019-06-07T08:50:02.790Z,23.22
2019-06-07T08:52:34.714Z,23.67
2019-06-07T08:55:09.409Z,23.95
2019-06-07T08:57:45.187Z,30.85
2019-06-07T09:00:43.041Z,25.92
2019-06-07T09:02:55.641Z,26.73
2019-06-07T09:05:30.267Z,28.38
2019-06-07T09:08:25.944Z,29.65
2019-06-07T09:10:39.344Z,29.85
2019-06-07T09:13:13.276Z,29.35
2019-06-07T09:15:47.052Z,29.55
2019-06-07T09:18:40.856Z,29.87
2019-06-07T09:20:58.241Z,27.42
2019-06-07T09:23:32.103Z,25.57
2019-06-07T09:26:15.997Z,29.40
2019-06-07T09:28:41.542Z,27.42
2019-06-07T09:31:17.090Z,27.22
2019-06-07T09:33:52.053Z,25.82
2019-06-07T09:36:26.794Z,27.10
2019-06-07T09:39:06.425Z,25.08
2019-06-07T09:41:47.472Z,30.23
2019-06-07T09:44:23.707Z,25.57
2019-06-07T09:47:07.950Z,24.25
2019-06-07T09:49:32.246Z,27.75
2019-06-07T09:52:02.922Z,25.48
2019-06-07T09:55:06.090Z,22.20
2019-06-07T09:57:17.137Z,23.40
2019-06-07T09:59:46.987Z,25.02
2019-06-07T10:02:20.712Z,23.95
2019-06-07T10:04:58.872Z,23.02
2019-06-07T10:07:32.240Z,20.77
2019-06-07T10:10:24.768Z,21.42
2019-06-07T10:12:41.768Z,23.15
2019-06-07T10:15:15.551Z,21.07
2019-06-07T10:17:49.517Z,18.32
2019-06-07T10:20:23.284Z,20.77
2019-06-07T10:22:57.029Z,19.32
2019-06-07T10:25:30.794Z,19.10
2019-06-07T10:28:05.911Z,21.95
2019-06-07T10:30:39.907Z,18.42
2019-06-07T10:33:13.556Z,17.52
2019-06-07T10:35:48.365Z,17.73
2019-06-07T10:38:22.599Z,17.77
2019-06-07T10:40:56.511Z,19.80
2019-06-07T10:43:30.363Z,16.17
2019-06-07T10:46:05.572Z,16.20
2019-06-07T10:48:39.684Z,16.42
2019-06-07T10:51:14.727Z,14.80
2019-06-07T10:53:49.083Z,18.05
2019-06-07T10:56:22.910Z,15.75
2019-06-07T10:58:56.822Z,14.65
2019-06-07T11:01:30.743Z,15.85
2019-06-07T11:04:05.757Z,14.47
2019-06-07T11:06:39.580Z,13.40
2019-06-07T11:09:14.264Z,11.75
2019-06-07T11:11:48.143Z,11.22
2019-06-07T11:14:22.654Z,10.88
2019-06-07T11:16:56.379Z,11.22
2019-06-07T11:19:30.100Z,10.25
2019-06-07T11:22:03.689Z,10.25
2019-06-07T11:24:37.536Z,10.32
2019-06-07T11:27:14.102Z,10.28
2019-06-07T11:29:47.492Z,9.85
2019-06-07T11:32:21.739Z,10.13
2019-06-07T11:34:55.481Z,9.38
2019-06-07T11:37:29.285Z,9.43
2019-06-07T11:40:03.083Z,9.15
2019-06-07T11:42:36.763Z,9.40
2019-06-07T11:45:12.907Z,8.60
2019-06-07T11:47:47.517Z,8.50
2019-06-07T11:50:21.923Z,8.03
2019-06-07T11:52:55.620Z,8.58
2019-06-07T11:55:29.548Z,8.28
2019-06-07T11:58:03.451Z,8.50
2019-06-07T12:00:37.199Z,8.58
2019-06-07T12:03:11.592Z,8.80
2019-06-07T12:05:45.523Z,7.58
2019-06-07T12:08:19.554Z,7.72
2019-06-07T12:10:53.318Z,8.68
2019-06-07T12:13:27.413Z,8.18
2019-06-07T12:16:01.194Z,9.03
2019-06-07T12:18:34.962Z,7.65
2019-06-07T12:21:09.557Z,7.83
2019-06-07T12:23:43.628Z,8.70
2019-06-07T12:26:18.509Z,9.30
2019-06-07T12:28:56.119Z,8.60
2019-06-07T12:31:29.841Z,7.95
2019-06-07T12:34:03.621Z,9.18
2019-06-07T12:36:38.421Z,8.90
2019-06-07T12:39:12.194Z,9.88
2019-06-07T12:41:46.062Z,8.73
2019-06-07T12:44:20.785Z,8.80
2019-06-07T12:46:54.650Z,8.80
2019-06-07T12:49:28.389Z,9.63
2019-06-07T12:52:02.045Z,9.20
2019-06-07T12:54:35.895Z,8.88
2019-06-07T12:57:09.641Z,9.58
2019-06-07T12:59:43.393Z,9.10
2019-06-07T13:02:20.033Z,10.65
2019-06-07T13:04:52.618Z,9.53
2019-06-07T13:07:26.413Z,10.48
2019-06-07T13:10:00.174Z,11.05
2019-06-07T13:12:34.115Z,10.18
2019-06-07T13:15:07.943Z,10.95
2019-06-07T13:17:42.226Z,10.28
2019-06-07T13:20:16.191Z,10.55
2019-06-07T13:22:50.085Z,12.40
2019-06-07T13:25:41.163Z,12.03
2019-06-07T13:27:59.583Z,12.20
2019-06-07T13:30:36.283Z,14.53
2019-06-07T13:33:08.918Z,13.48
2019-06-07T13:35:42.934Z,17.80
2019-06-07T13:38:26.251Z,14.53
2019-06-07T13:41:00.055Z,14.23
2019-06-07T13:43:33.956Z,14.05
2019-06-07T13:46:07.738Z,14.20
2019-06-07T13:48:41.675Z,18.87
2019-06-07T13:51:15.471Z,14.87
2019-06-07T13:53:49.231Z,14.45
2019-06-07T13:56:23.967Z,13.95
2019-06-07T13:58:57.953Z,13.83
2019-06-07T14:01:31.746Z,13.93
2019-06-07T14:04:05.474Z,15.50
2019-06-07T14:06:39.477Z,14.80
2019-06-07T14:09:13.331Z,13.98
2019-06-07T14:11:50.941Z,13.15
2019-06-07T14:14:24.886Z,14.20
2019-06-07T14:16:58.245Z,14.47
2019-06-07T14:19:31.990Z,14.10
2019-06-07T14:22:05.748Z,15.78
2019-06-07T14:24:39.697Z,14.05
2019-06-07T14:27:13.655Z,13.60
2019-06-07T14:29:47.381Z,13.88
2019-06-07T14:32:22.663Z,13.00
2019-06-07T14:34:56.523Z,13.40
2019-06-07T14:37:30.964Z,12.73
2019-06-07T14:40:05.581Z,12.65
2019-06-07T14:42:39.339Z,12.68
2019-06-07T14:45:13.242Z,13.45
2019-06-07T14:47:47.305Z,12.47
2019-06-07T14:50:21.105Z,13.38
2019-06-07T14:52:54.855Z,12.63
2019-06-07T14:55:31.108Z,12.30
2019-06-07T14:58:05.070Z,12.53
2019-06-07T15:00:45.281Z,12.50
2019-06-07T15:03:19.003Z,11.43
2019-06-07T15:05:53.113Z,11.15
2019-06-07T15:08:26.880Z,12.07
2019-06-07T15:11:00.699Z,12.47
2019-06-07T15:13:35.740Z,11.53
2019-06-07T15:16:09.527Z,12.45
2019-06-07T15:18:43.478Z,12.15
2019-06-07T15:21:18.543Z,11.18
2019-06-07T15:23:52.629Z,12.37
2019-06-07T15:26:26.370Z,11.33
2019-06-07T15:29:00.129Z,11.33
2019-06-07T15:31:34.578Z,11.18
2019-06-07T15:34:09.279Z,11.00
2019-06-07T15:36:42.989Z,10.90
2019-06-07T15:39:16.682Z,11.30
2019-06-07T15:41:50.476Z,10.95
2019-06-07T15:44:24.253Z,11.12
2019-06-07T15:46:58.040Z,10.25
2019-06-07T15:49:32.243Z,12.30
2019-06-07T15:52:06.072Z,10.18
2019-06-07T15:54:40.737Z,10.63
2019-06-07T15:57:14.911Z,11.40
2019-06-07T15:59:48.718Z,11.18
2019-06-07T16:02:23.341Z,11.05
2019-06-07T16:04:57.166Z,11.57
2019-06-07T16:07:32.008Z,11.15
2019-06-07T16:10:07.318Z,11.20
2019-06-07T16:12:58.647Z,10.82
2019-06-07T16:15:16.470Z,9.98
2019-06-07T16:17:50.217Z,9.73
2019-06-07T16:20:24.187Z,9.73
2019-06-07T16:22:57.895Z,9.50
2019-06-07T16:25:31.624Z,8.83
2019-06-07T16:28:05.365Z,8.88
2019-06-07T16:30:39.096Z,8.55
2019-06-07T16:33:12.994Z,8.55
2019-06-07T16:35:46.740Z,8.40
2019-06-07T16:38:20.487Z,8.63
2019-06-07T16:40:54.132Z,8.53
2019-06-07T16:43:27.972Z,8.28
2019-06-07T16:46:02.568Z,8.90
2019-06-07T16:48:37.173Z,8.85
2019-06-07T16:51:10.852Z,8.93
2019-06-07T16:53:44.685Z,9.28
2019-06-07T16:56:18.400Z,8.48
2019-06-07T16:58:52.687Z,8.55
2019-06-07T17:01:28.343Z,9.63
2019-06-07T17:04:02.483Z,11.50
2019-06-07T17:06:37.501Z,11.22
2019-06-07T17:09:11.636Z,8.40
2019-06-07T17:11:46.390Z,10.50
2019-06-07T17:14:20.349Z,10.23
2019-06-07T17:16:53.967Z,8.68
2019-06-07T17:19:27.695Z,8.23
2019-06-07T17:22:01.417Z,7.95
2019-06-07T17:24:35.020Z,8.45
2019-06-07T17:27:08.894Z,12.58
2019-06-07T17:29:43.679Z,8.10
2019-06-07T17:32:17.587Z,7.78
2019-06-07T17:34:51.153Z,9.33
2019-06-07T17:37:24.931Z,8.90
2019-06-07T17:39:58.027Z,8.53
2019-06-07T17:42:33.214Z,13.40
2019-06-07T17:45:09.213Z,8.05
2019-06-07T17:47:43.727Z,7.90
2019-06-07T17:50:17.467Z,9.25
2019-06-07T17:52:53.314Z,9.65
2019-06-07T17:55:27.117Z,8.25
2019-06-07T17:58:00.994Z,8.30
2019-06-07T18:00:53.797Z,8.18
2019-06-07T18:03:27.524Z,8.95
2019-06-07T18:06:01.391Z,9.00
2019-06-07T18:08:35.460Z,8.78
2019-06-07T18:11:09.191Z,8.25
2019-06-07T18:13:44.019Z,10.25
2019-06-07T18:16:18.618Z,8.30
2019-06-07T18:18:52.822Z,9.65
2019-06-07T18:21:26.718Z,9.58
2019-06-07T18:24:01.020Z,8.43
2019-06-07T18:26:36.025Z,10.00
2019-06-07T18:29:09.794Z,11.65
2019-06-07T18:31:43.561Z,12.10
2019-06-07T18:34:17.313Z,12.30
2019-06-07T18:36:53.056Z,11.85
2019-06-07T18:39:27.333Z,11.15
2019-06-07T18:42:01.064Z,11.12
2019-06-07T18:44:34.965Z,11.78
2019-06-07T18:47:08.720Z,12.20
2019-06-07T18:49:42.389Z,12.95
2019-06-07T18:52:23.311Z,20.45
2019-06-07T18:54:57.068Z,11.90
2019-06-07T18:57:30.781Z,11.68
2019-06-07T19:00:07.096Z,11.45
2019-06-07T19:02:40.842Z,11.10
2019-06-07T19:05:14.707Z,14.93
2019-06-07T19:07:50.456Z,14.10
2019-06-07T19:10:24.482Z,11.35
2019-06-07T19:13:00.360Z,12.58
2019-06-07T19:15:33.715Z,11.15
2019-06-07T19:18:07.647Z,10.63
2019-06-07T19:20:42.164Z,10.85
2019-06-07T19:23:15.931Z,11.00
2019-06-07T19:25:50.166Z,16.05
2019-06-07T19:28:24.076Z,19.55
2019-06-07T19:30:59.089Z,29.05
2019-06-07T19:33:48.236Z,30.75
2019-06-07T19:36:08.455Z,26.73
2019-06-07T19:38:42.615Z,35.00
2019-06-07T19:41:19.737Z,24.52
2019-06-07T19:43:52.120Z,30.05
2019-06-07T19:46:27.167Z,25.68
2019-06-07T19:49:00.912Z,21.25
2019-06-07T19:51:34.662Z,22.67
2019-06-07T19:54:08.402Z,22.10
2019-06-07T19:56:42.431Z,20.17
2019-06-07T19:59:16.297Z,21.77
2019-06-07T20:01:50.035Z,24.77
2019-06-07T20:04:23.828Z,25.30
2019-06-07T20:06:58.229Z,27.52
2019-06-07T20:09:31.995Z,19.15
2019-06-07T20:12:05.728Z,22.27
2019-06-07T20:14:39.469Z,21.35
2019-06-07T20:17:12.976Z,23.42
2019-06-07T20:19:46.674Z,23.62
2019-06-07T20:22:20.418Z,19.60
2019-06-07T20:24:54.037Z,23.02
2019-06-07T20:27:27.774Z,19.73
2019-06-07T20:30:02.416Z,21.95
2019-06-07T20:32:36.306Z,20.02
2019-06-07T20:35:10.104Z,20.40
2019-06-07T20:37:43.906Z,19.52
2019-06-07T20:40:24.280Z,20.32
2019-06-07T20:42:53.182Z,20.20
2019-06-07T20:45:33.751Z,20.05
2019-06-07T20:48:04.068Z,20.43
2019-06-07T20:50:38.392Z,19.40
2019-06-07T20:53:12.265Z,17.90
2019-06-07T20:55:46.016Z,19.07
2019-06-07T20:58:19.786Z,17.98
2019-06-07T21:00:53.577Z,19.62
2019-06-07T21:03:27.418Z,18.07
2019-06-07T21:06:01.478Z,19.23
2019-06-07T21:08:35.510Z,18.30
2019-06-07T21:11:09.865Z,17.98
2019-06-07T21:13:43.541Z,17.00
2019-06-07T21:16:17.333Z,19.02
2019-06-07T21:18:51.942Z,18.40
2019-06-07T21:21:25.661Z,17.75
2019-06-07T21:24:00.480Z,18.07
2019-06-07T21:26:34.435Z,17.60
2019-06-07T21:29:09.331Z,17.23
2019-06-07T21:31:43.296Z,16.17
2019-06-07T21:34:17.142Z,17.70
2019-06-07T21:36:50.904Z,18.70
2019-06-07T21:39:24.765Z,18.85
2019-06-07T21:41:58.582Z,17.45
2019-06-07T21:44:32.673Z,19.52
2019-06-07T21:47:06.497Z,21.97
2019-06-07T21:49:40.442Z,16.90
2019-06-07T21:52:14.101Z,17.77
2019-06-07T21:54:47.869Z,17.48
2019-06-07T21:57:21.991Z,18.32
2019-06-07T21:59:55.717Z,19.15
2019-06-07T22:02:29.475Z,16.67
2019-06-07T22:05:03.532Z,17.80
2019-06-07T22:07:37.600Z,16.50
2019-06-07T22:10:14.507Z,19.10
2019-06-07T22:12:48.363Z,21.07
2019-06-07T22:15:33.137Z,17.62
2019-06-07T22:17:57.705Z,18.48
2019-06-07T22:20:31.543Z,18.70
2019-06-07T22:23:06.465Z,20.95
2019-06-07T22:25:40.361Z,18.20
2019-06-07T22:28:14.396Z,22.90
2019-06-07T22:30:48.225Z,22.42
2019-06-07T22:33:23.094Z,19.45
2019-06-07T22:35:56.900Z,20.48
2019-06-07T22:38:30.713Z,21.20
2019-06-07T22:41:05.572Z,21.10
2019-06-07T22:43:39.372Z,20.70
2019-06-07T22:46:13.261Z,21.15
2019-06-07T22:48:47.180Z,20.82
2019-06-07T22:51:20.924Z,20.95
2019-06-07T22:53:54.585Z,23.70
2019-06-07T22:56:36.343Z,20.25
2019-06-07T22:59:13.695Z,26.12
2019-06-07T23:01:45.382Z,25.75
2019-06-07T23:04:19.380Z,23.38
2019-06-07T23:06:53.070Z,25.02
2019-06-07T23:09:26.698Z,28.62
2019-06-07T23:12:00.416Z,24.43
2019-06-07T23:14:34.178Z,24.32
2019-06-07T23:17:09.398Z,28.07
2019-06-07T23:19:43.240Z,25.30
2019-06-07T23:22:17.948Z,27.95
2019-06-07T23:24:51.869Z,27.05
2019-06-07T23:27:25.660Z,25.43
2019-06-07T23:29:59.580Z,28.40
2019-06-07T23:32:33.532Z,25.30
2019-06-07T23:35:08.040Z,24.30
2019-06-07T23:37:43.445Z,27.48
2019-06-07T23:40:19.471Z,28.52
2019-06-07T23:42:53.483Z,24.20
2019-06-07T23:45:27.182Z,27.65
2019-06-07T23:48:00.902Z,27.62
2019-06-07T23:50:35.561Z,28.38
2019-06-07T23:53:11.884Z,25.20
2019-06-07T23:55:45.530Z,27.85
2019-06-07T23:58:20.579Z,25.62
